Observations for BOURNEMOUTH AIRPORT, United Kingdom (EGHH)

EGHH 240920Z 27005KT 7000 FEW042 19/17 Q1015
EGHH 240850Z 27009KT 7000 FEW038 19/16 Q1015
EGHH 240820Z 23005KT 7000 FEW038 19/17 Q1015
EGHH 240750Z 21004KT 7000 FEW038 19/16 Q1015
EGHH 240720Z VRB01KT 7000 FEW045 18/16 Q1014
EGHH 240650Z 22004KT 7000 FEW045 18/17 Q1014
EGHH 240620Z 21004KT 7000 FEW045 17/16 Q1014
EGHH 240550Z VRB02KT 7000 FEW045 17/16 Q1013
EGHH 240520Z VRB01KT 7000 NSC 16/16 Q1013   
EGHH 240450Z 29003KT 7000 NSC 16/15 Q1012   
EGHH 232150Z 03002KT CAVOK 18/16 Q1013  
EGHH 232120Z 07004KT CAVOK 19/16 Q1013  
EGHH 232050Z 08004KT CAVOK 19/16 Q1013  
EGHH 232020Z 05004KT CAVOK 20/16 Q1013  
EGHH 231950Z 08007KT 9999 FEW048 20/16 Q1012
EGHH 231920Z 08008KT 9999 FEW048 21/17 Q1012
EGHH 231850Z 08005KT 9999 FEW048 21/16 Q1012
EGHH 231820Z 08006KT 9999 FEW048 21/16 Q1012
EGHH 231750Z 08007KT CAVOK 21/16 Q1012  
EGHH 231720Z 10005KT CAVOK 21/16 Q1012  
EGHH 231650Z 09005KT CAVOK 21/15 Q1013  
EGHH 231620Z 10005KT CAVOK 21/15 Q1013  
EGHH 231550Z 14005KT 080V200 CAVOK 21/15 Q1014  
EGHH 231520Z 11004KT CAVOK 22/15 Q1014  
EGHH 231450Z 12007KT CAVOK 22/15 Q1014  
EGHH 231420Z 10008KT CAVOK 23/15 Q1014  
EGHH 231350Z 09011KT CAVOK 23/15 Q1013  
EGHH 231320Z 11007KT 060V130 CAVOK 23/15 Q1014  
EGHH 231250Z 10008KT CAVOK 22/15 Q1014  
EGHH 231220Z 09008KT CAVOK 22/14 Q1014  
EGHH 231150Z 09011KT CAVOK 22/14 Q1014  
EGHH 231120Z 10010KT CAVOK 23/15 Q1014  
EGHH 231050Z 10009KT 9999 BKN048 22/14 Q1015
EGHH 231020Z 10005KT 040V140 9999 BKN048 21/15 Q1015
EGHH 230950Z 08006KT 9999 BKN048 19/15 Q1016
EGHH 230920Z 09006KT 9999 BKN049 19/14 Q1016
EGHH 230850Z 09007KT CAVOK 18/14 Q1016